Time;durP1;ratioP1;P1;durP2;ratioP2;P2;SDS_P1;SDS_P2;PMS_P1;PMS_P2;Temp;Humidity;BMP_temperature;BMP_pressure;BME280_temperature;BME280_humidity;BME280_pressure;Samples;Min_cycle;Max_cycle;Signal;HPM_P1;HPM_P2
2021/03/15 00:00:46;;;;;;;18.35;9.43;;;;;;;5.20;80.83;99237.97;1736249;81;22329;-71
2021/03/15 00:03:12;;;;;;;20.68;10.00;;;;;;;5.08;81.09;99235.20;1726074;81;21575;-71
2021/03/15 00:05:38;;;;;;;20.30;10.17;;;;;;;5.18;80.82;99237.30;1728788;81;20915;-71
2021/03/15 00:08:04;;;;;;;18.93;10.00;;;;;;;5.20;80.36;99237.97;1728686;81;27720;-71
2021/03/15 00:10:30;;;;;;;21.62;10.53;;;;;;;5.10;80.66;99239.82;1730705;81;21217;-73
2021/03/15 00:12:56;;;;;;;22.85;9.98;;;;;;;5.12;80.54;99247.03;1730812;81;21426;-72
2021/03/15 00:15:23;;;;;;;20.60;10.27;;;;;;;5.11;80.45;99249.30;1727899;81;22868;-70
2021/03/15 00:17:49;;;;;;;18.07;9.05;;;;;;;5.18;80.28;99250.39;1727646;81;21241;-72
2021/03/15 00:20:16;;;;;;;20.48;9.70;;;;;;;5.19;79.86;99253.36;1728416;81;21229;-70
2021/03/15 00:22:42;;;;;;;21.20;10.48;;;;;;;5.28;79.36;99251.16;1732922;81;21217;-70
2021/03/15 00:25:09;;;;;;;21.60;9.87;;;;;;;5.26;79.09;99253.09;1724138;81;21402;-70
2021/03/15 00:27:35;;;;;;;20.20;9.83;;;;;;;5.22;79.03;99247.84;1730298;81;21256;-71
2021/03/15 00:30:01;;;;;;;19.62;9.38;;;;;;;5.17;79.17;99247.42;1731897;81;21652;-70
2021/03/15 00:32:27;;;;;;;20.27;9.00;;;;;;;5.08;79.28;99258.74;1725256;81;21590;-70
2021/03/15 00:34:53;;;;;;;16.85;8.95;;;;;;;5.15;79.12;99257.22;1727493;81;21232;-70
2021/03/15 00:37:19;;;;;;;19.40;10.03;;;;;;;5.04;79.17;99262.95;1731825;81;21669;-70
2021/03/15 00:39:44;;;;;;;20.63;9.47;;;;;;;5.12;79.17;99263.55;1732409;81;22356;-70
2021/03/15 00:42:10;;;;;;;20.17;9.80;;;;;;;5.11;78.82;99258.46;1730535;81;20952;-70
2021/03/15 00:44:36;;;;;;;20.72;9.13;;;;;;;5.00;79.15;99262.92;1731012;81;27840;-70
2021/03/15 00:47:02;;;;;;;19.48;9.43;;;;;;;5.13;78.70;99261.78;1732031;81;25484;-70
2021/03/15 00:52:09;;;;;;;20.87;9.87;;;;;;;5.21;78.06;99257.45;1844375;75;27671;-69
2021/03/15 00:54:35;;;;;;;18.55;9.90;;;;;;;5.22;77.89;99260.92;1805554;77;25785;-69
2021/03/15 00:57:00;;;;;;;22.60;9.87;;;;;;;5.21;77.59;99266.62;1807289;77;21369;-69
2021/03/15 00:59:26;;;;;;;20.57;9.53;;;;;;;5.26;77.54;99267.50;1804535;78;20934;-70
2021/03/15 01:01:52;;;;;;;18.20;9.90;;;;;;;5.23;77.47;99273.02;1806150;77;21584;-70
2021/03/15 01:04:17;;;;;;;20.45;9.33;;;;;;;5.33;77.15;99273.81;1806280;77;28575;-69
2021/03/15 01:06:44;;;;;;;20.27;9.83;;;;;;;5.49;76.63;99273.69;1805344;78;26621;-70
2021/03/15 01:09:10;;;;;;;20.65;9.98;;;;;;;5.61;76.38;99275.61;1805690;78;21922;-70
2021/03/15 01:11:39;;;;;;;19.23;9.43;;;;;;;5.60;76.29;99281.34;1804961;77;21185;-70
2021/03/15 01:14:05;;;;;;;17.35;9.28;;;;;;;5.67;76.07;99278.48;1804918;78;21220;-69
2021/03/15 01:16:30;;;;;;;16.80;8.93;;;;;;;5.52;75.48;99283.87;1806032;77;28762;-69
2021/03/15 01:18:56;;;;;;;16.65;8.70;;;;;;;5.44;75.82;99279.82;1806835;78;25378;-70
2021/03/15 01:21:22;;;;;;;20.10;9.63;;;;;;;5.46;75.76;99278.72;1806548;79;21414;-69
2021/03/15 01:23:48;;;;;;;23.37;9.97;;;;;;;5.21;75.79;99273.66;1807765;77;23643;-69
2021/03/15 01:26:13;;;;;;;18.80;9.90;;;;;;;4.88;76.96;99269.28;1803906;78;21590;-69
2021/03/15 01:28:39;;;;;;;16.73;9.13;;;;;;;4.99;76.92;99265.19;1805310;78;26733;-70
2021/03/15 01:31:05;;;;;;;19.67;9.90;;;;;;;4.96;77.00;99270.70;1803806;78;25187;-70
2021/03/15 01:33:30;;;;;;;20.83;9.97;;;;;;;4.98;76.97;99267.45;1808574;77;21181;-71
2021/03/15 01:35:56;;;;;;;18.70;9.37;;;;;;;5.10;76.62;99268.61;1806726;77;22587;-70
2021/03/15 01:38:22;;;;;;;21.63;10.47;;;;;;;5.23;76.47;99267.78;1809950;77;21657;-70
2021/03/15 01:40:48;;;;;;;18.02;9.58;;;;;;;5.29;75.90;99274.25;1807399;77;27758;-70
2021/03/15 01:43:13;;;;;;;17.23;9.30;;;;;;;5.29;75.47;99271.14;1805456;77;24184;-71
2021/03/15 01:45:39;;;;;;;16.63;8.60;;;;;;;5.28;75.37;99265.55;1805191;78;21141;-71
2021/03/15 01:48:12;;;;;;;17.37;9.03;;;;;;;5.26;75.20;99264.88;1803838;78;23170;-69
2021/03/15 01:50:35;;;;;;;17.57;9.25;;;;;;;5.20;75.07;99260.22;1777188;79;21212;-69
2021/03/15 01:53:00;;;;;;;19.00;9.38;;;;;;;5.11;75.23;99265.00;1791687;77;28701;-71
2021/03/15 01:55:26;;;;;;;18.87;9.63;;;;;;;5.15;75.26;99271.12;1793475;79;25138;-69
2021/03/15 01:57:52;;;;;;;21.37;10.07;;;;;;;5.16;75.12;99269.34;1797559;79;21404;-69
2021/03/15 02:00:19;;;;;;;19.80;9.67;;;;;;;4.99;75.29;99274.83;1798359;79;24054;-69
2021/03/15 02:02:52;;;;;;;19.20;9.23;;;;;;;4.94;75.42;99267.88;1795607;79;21195;-69
2021/03/15 02:05:18;;;;;;;20.20;9.73;;;;;;;4.99;75.34;99271.73;1790428;79;21180;-70
2021/03/15 02:07:43;;;;;;;21.27;10.08;;;;;;;5.05;74.98;99269.03;1799692;77;26441;-69
2021/03/15 02:10:10;;;;;;;20.90;10.30;;;;;;;4.86;75.66;99265.96;1792295;77;22131;-69
2021/03/15 02:13:01;;;;;;;21.02;9.48;;;;;;;4.89;75.82;99264.86;1795578;79;21423;-70
2021/03/15 02:15:41;;;;;;;21.42;9.85;;;;;;;4.95;75.51;99265.11;1799196;79;21491;-69
2021/03/15 02:18:28;;;;;;;23.32;9.75;;;;;;;5.04;75.30;99259.03;1802519;77;21169;-69
2021/03/15 02:21:02;;;;;;;19.55;9.15;;;;;;;5.06;75.22;99261.50;1770810;79;21681;-70
2021/03/15 02:23:49;;;;;;;20.60;9.78;;;;;;;5.04;75.06;99262.14;1791014;79;22502;-70
2021/03/15 02:26:58;;;;;;;22.15;9.65;;;;;;;5.01;75.27;99275.02;1792780;77;21251;-71
2021/03/15 02:30:02;;;;;;;22.82;9.68;;;;;;;4.86;75.82;99265.96;1793800;77;21709;-70
2021/03/15 02:32:57;;;;;;;19.37;9.40;;;;;;;4.81;76.26;99262.95;1786676;77;21194;-70
2021/03/15 02:35:24;;;;;;;23.10;9.83;;;;;;;4.85;76.39;99261.72;1793603;79;21642;-70
2021/03/15 02:38:04;;;;;;;20.37;9.85;;;;;;;4.96;76.20;99261.55;1771171;79;26885;-70
2021/03/15 02:40:41;;;;;;;21.48;10.68;;;;;;;4.89;76.12;99263.06;1727299;81;21692;-70
2021/03/15 02:43:36;;;;;;;25.20;9.60;;;;;;;4.83;76.41;99255.78;1752490;81;21206;-71
2021/03/15 02:46:05;;;;;;;21.33;10.38;;;;;;;4.94;76.45;99253.02;1741658;80;21201;-71
2021/03/15 02:48:33;;;;;;;23.02;10.40;;;;;;;4.98;76.19;99254.36;1746393;80;21600;-70
2021/03/15 02:50:58;;;;;;;22.40;10.70;;;;;;;4.93;76.30;99257.91;1750586;80;21681;-70
2021/03/15 02:53:24;;;;;;;22.73;10.80;;;;;;;4.99;76.07;99266.49;1746978;80;22158;-70
2021/03/15 02:55:52;;;;;;;25.63;10.70;;;;;;;5.00;75.94;99266.84;1747694;80;21560;-70
2021/03/15 02:58:17;;;;;;;;;;;;;;;4.99;75.78;99278.27;1755162;80;21208;-70
2021/03/15 03:00:43;;;;;;;22.30;10.35;;;;;;;4.80;76.15;99279.60;1752503;80;20264;-70
2021/03/15 03:03:09;;;;;;;21.30;10.03;;;;;;;4.87;75.91;99280.70;1742462;80;21319;-69
2021/03/15 03:05:35;;;;;;;24.57;11.13;;;;;;;4.91;75.66;99280.77;1750253;80;22590;-69
2021/03/15 03:08:00;;;;;;;22.30;10.77;;;;;;;4.84;75.58;99283.59;1744593;80;21135;-70
2021/03/15 03:10:27;;;;;;;18.90;10.03;;;;;;;4.91;75.42;99283.39;1751641;80;25847;-71
2021/03/15 03:12:53;;;;;;;22.52;10.23;;;;;;;5.01;75.16;99282.86;1722823;80;21715;-70
2021/03/15 03:15:23;;;;;;;23.55;10.58;;;;;;;5.10;74.58;99286.44;1725285;81;22334;-70
2021/03/15 03:17:49;;;;;;;20.12;10.32;;;;;;;5.01;74.48;99286.79;1749896;80;21242;-70
2021/03/15 03:20:18;;;;;;;23.03;11.63;;;;;;;5.00;74.39;99282.55;1745770;80;20946;-70
2021/03/15 03:22:45;;;;;;;24.15;10.82;;;;;;;4.80;74.84;99288.30;1721853;80;21794;-69
2021/03/15 03:25:17;;;;;;;22.80;10.90;;;;;;;4.89;74.75;99297.07;1754745;80;21718;-71
2021/03/15 03:27:45;;;;;;;20.08;10.05;;;;;;;4.84;74.91;99294.06;1751617;80;21238;-70
2021/03/15 03:30:11;;;;;;;22.98;11.15;;;;;;;4.98;74.58;99296.23;1740228;80;21228;-71
2021/03/15 03:32:38;;;;;;;22.17;10.23;;;;;;;4.94;74.44;99292.27;1746051;80;21179;-70
2021/03/15 03:35:05;;;;;;;22.73;10.58;;;;;;;4.97;74.27;99285.44;1749321;80;21178;-70
2021/03/15 03:37:31;;;;;;;22.75;10.10;;;;;;;4.82;74.50;99290.77;1741883;80;21202;-70
2021/03/15 03:39:57;;;;;;;22.30;10.90;;;;;;;4.83;74.62;99285.86;1746394;80;22144;-70
2021/03/15 03:42:23;;;;;;;21.90;9.97;;;;;;;4.54;75.27;99295.89;1744306;80;23108;-70
2021/03/15 03:44:51;;;;;;;19.63;9.30;;;;;;;4.51;75.33;99293.55;1750971;80;21837;-70
2021/03/15 03:47:16;;;;;;;23.95;10.70;;;;;;;4.44;75.50;99296.36;1788290;78;21179;-69
2021/03/15 03:49:43;;;;;;;23.20;10.63;;;;;;;4.39;75.69;99294.66;1787111;78;23195;-70
2021/03/15 03:52:08;;;;;;;28.15;11.75;;;;;;;4.35;75.80;99290.66;1784185;78;22266;-70
2021/03/15 03:54:44;;;;;;;22.87;10.33;;;;;;;4.14;76.52;99294.22;1785651;78;20933;-70
2021/03/15 03:57:12;;;;;;;24.82;10.98;;;;;;;4.28;76.30;99293.81;1752323;80;21254;-70
2021/03/15 03:59:43;;;;;;;22.37;10.35;;;;;;;4.06;77.32;99294.09;1756486;80;21090;-69
2021/03/15 04:02:10;;;;;;;22.25;11.12;;;;;;;3.86;78.02;99294.03;1753022;80;21197;-71
2021/03/15 04:04:41;;;;;;;22.42;11.12;;;;;;;3.81;78.39;99301.45;1769256;80;21348;-71
2021/03/15 04:07:07;;;;;;;23.32;10.98;;;;;;;3.92;78.17;99303.95;1752888;80;21207;-71
2021/03/15 04:09:35;;;;;;;23.60;11.48;;;;;;;3.90;78.29;99307.19;1760453;80;21175;-71
2021/03/15 04:12:08;;;;;;;24.30;11.03;;;;;;;3.92;78.46;99307.87;1753816;80;21217;-71
2021/03/15 04:14:39;;;;;;;22.27;10.88;;;;;;;4.00;78.06;99306.38;1751423;80;21759;-71
2021/03/15 04:17:04;;;;;;;24.18;11.55;;;;;;;4.18;77.53;99302.15;1749185;80;21992;-71
2021/03/15 04:19:36;;;;;;;21.17;10.27;;;;;;;4.24;77.11;99295.53;1755631;80;20961;-71
2021/03/15 04:22:07;;;;;;;21.40;11.05;;;;;;;4.31;76.70;99296.16;1748873;80;21238;-71
2021/03/15 04:24:35;;;;;;;29.10;12.15;;;;;;;4.30;76.36;99297.14;1785481;78;21203;-69
2021/03/15 04:27:01;;;;;;;27.48;11.57;;;;;;;4.22;76.40;99293.05;1758800;79;21191;-70
2021/03/15 04:29:27;;;;;;;22.60;11.07;;;;;;;4.20;76.44;99298.91;1748943;79;21309;-70
2021/03/15 04:31:53;;;;;;;22.43;10.90;;;;;;;4.30;76.11;99303.67;1763150;79;20971;-70
2021/03/15 04:34:19;;;;;;;20.97;10.85;;;;;;;4.28;76.01;99306.87;1759621;79;21674;-70
2021/03/15 04:36:45;;;;;;;24.67;11.50;;;;;;;4.34;75.94;99307.32;1772749;79;24861;-70
2021/03/15 04:39:10;;;;;;;22.27;11.43;;;;;;;4.36;75.76;99313.23;1774021;79;24206;-70
2021/03/15 04:41:36;;;;;;;25.90;12.87;;;;;;;4.39;75.50;99312.95;1758007;79;21361;-70
2021/03/15 04:44:02;;;;;;;26.63;12.27;;;;;;;4.26;75.58;99311.43;1765006;79;21279;-69
2021/03/15 04:46:28;;;;;;;26.17;12.40;;;;;;;4.23;75.83;99303.05;1768349;79;21618;-70
2021/03/15 04:48:53;;;;;;;22.30;11.73;;;;;;;4.39;75.44;99315.56;1779879;79;25901;-69
2021/03/15 04:51:19;;;;;;;31.27;13.90;;;;;;;4.30;75.57;99320.66;1773468;79;25431;-70
2021/03/15 04:53:45;;;;;;;26.90;11.83;;;;;;;4.08;76.02;99324.32;1775697;79;21370;-70
2021/03/15 04:56:14;;;;;;;24.00;11.83;;;;;;;4.20;76.10;99332.88;1770216;79;21141;-70
2021/03/15 04:58:43;;;;;;;23.50;11.70;;;;;;;4.30;75.95;99338.11;1771755;79;21913;-71
2021/03/15 05:01:09;;;;;;;25.95;12.28;;;;;;;4.43;75.68;99340.48;1762711;79;21249;-70
2021/03/15 05:03:35;;;;;;;27.42;13.25;;;;;;;4.51;75.42;99336.69;1772432;79;25149;-70
2021/03/15 05:06:01;;;;;;;25.10;12.68;;;;;;;4.27;75.50;99340.99;1761295;79;21236;-71
2021/03/15 05:08:30;;;;;;;24.27;12.23;;;;;;;4.24;75.98;99342.11;1767429;79;20949;-71
2021/03/15 05:10:59;;;;;;;25.85;12.65;;;;;;;4.21;76.09;99341.53;1774506;79;21178;-71
2021/03/15 05:13:24;;;;;;;30.12;13.53;;;;;;;4.26;76.01;99341.48;1743031;80;21139;-71
2021/03/15 05:15:50;;;;;;;26.00;13.40;;;;;;;4.29;76.01;99346.44;1765878;79;25202;-70
2021/03/15 05:18:16;;;;;;;24.47;12.07;;;;;;;4.28;75.90;99335.63;1763425;79;21350;-70
2021/03/15 05:20:42;;;;;;;23.70;12.20;;;;;;;4.41;75.75;99337.16;1772939;79;21642;-70
2021/03/15 05:23:09;;;;;;;28.12;12.73;;;;;;;4.36;75.57;99345.41;1777960;78;21612;-70
2021/03/15 05:28:23;;;;;;;29.87;12.80;;;;;;;4.41;76.00;99342.38;1729430;81;21171;-71
2021/03/15 05:30:50;;;;;;;24.17;13.73;;;;;;;4.58;75.72;99346.92;1719007;81;21197;-73
2021/03/15 05:33:16;;;;;;;29.25;14.07;;;;;;;4.56;75.18;99342.81;1728043;81;21784;-73
2021/03/15 05:35:43;;;;;;;28.80;14.07;;;;;;;4.43;75.34;99344.41;1729727;81;21222;-72
2021/03/15 05:38:10;;;;;;;27.87;13.62;;;;;;;4.39;76.10;99357.39;1731548;81;21219;-71
2021/03/15 05:40:38;;;;;;;26.95;14.18;;;;;;;4.41;77.68;99358.07;1726095;81;21213;-71
2021/03/15 05:43:35;;;;;;;27.95;13.90;;;;;;;4.46;76.33;99355.89;1735425;81;21822;-71
2021/03/15 05:46:43;;;;;;;26.68;13.40;;;;;;;4.54;76.22;99359.95;1735927;81;21254;-71
2021/03/15 05:49:43;;;;;;;27.50;14.28;;;;;;;4.60;75.90;99362.02;1670231;84;21196;-70
2021/03/15 05:52:16;;;;;;;26.23;13.62;;;;;;;4.70;75.53;99359.88;1726406;81;21229;-72
2021/03/15 05:55:06;;;;;;;30.65;14.45;;;;;;;4.80;75.60;99356.77;1711499;81;21237;-72
2021/03/15 05:57:57;;;;;;;30.52;16.17;;;;;;;4.85;75.51;99361.13;1729630;81;21897;-71
2021/03/15 06:01:02;;;;;;;29.27;14.38;;;;;;;4.80;75.50;99355.45;1728879;81;21279;-71
2021/03/15 06:04:19;;;;;;;32.85;16.02;;;;;;;5.07;75.39;99360.48;1731305;81;21180;-70
2021/03/15 06:06:48;;;;;;;30.95;14.93;;;;;;;4.92;75.46;99360.08;1685432;82;21228;-70
2021/03/15 06:09:16;;;;;;;33.38;15.83;;;;;;;4.83;76.17;99358.64;1681675;82;21245;-70
2021/03/15 06:11:46;;;;;;;26.12;14.20;;;;;;;4.95;75.90;99363.72;1685153;82;21270;-71
2021/03/15 06:14:14;;;;;;;34.43;16.57;;;;;;;4.89;76.28;99364.27;1695422;82;21235;-71
2021/03/15 06:16:40;;;;;;;;;;;;;;;5.07;75.93;99372.25;1697795;82;21794;-69
2021/03/15 06:19:06;;;;;;;27.73;14.10;;;;;;;5.17;75.90;99371.73;1701005;82;20291;-70
2021/03/15 06:21:32;;;;;;;27.80;16.03;;;;;;;5.29;75.58;99369.30;1703833;82;24720;-69
2021/03/15 06:24:00;;;;;;;32.83;16.30;;;;;;;5.28;75.47;99378.11;1687051;82;21933;-70
2021/03/15 06:26:31;;;;;;;33.20;17.77;;;;;;;5.31;75.50;99375.21;1703323;82;21738;-70
2021/03/15 06:29:03;;;;;;;37.70;17.75;;;;;;;5.40;75.32;99376.98;1694576;82;21241;-69
2021/03/15 06:31:30;;;;;;;36.45;18.20;;;;;;;5.43;75.13;99380.30;1684335;82;21714;-68
2021/03/15 06:33:57;;;;;;;38.38;18.65;;;;;;;5.18;76.02;99385.17;1703118;82;21246;-68
2021/03/15 06:36:23;;;;;;;34.63;17.57;;;;;;;5.24;75.93;99379.38;1694624;82;21263;-68
2021/03/15 06:38:48;;;;;;;34.23;19.17;;;;;;;5.31;76.07;99383.06;1676756;82;23816;-69
2021/03/15 06:41:15;;;;;;;44.57;20.43;;;;;;;5.38;76.07;99384.16;1704253;82;22750;-69
2021/03/15 06:43:41;;;;;;;43.38;20.00;;;;;;;5.42;76.14;99377.33;1696730;84;21226;-68
2021/03/15 06:46:07;;;;;;;43.68;20.82;;;;;;;5.45;76.36;99379.67;1702116;84;25086;-68
2021/03/15 06:48:33;;;;;;;38.90;20.33;;;;;;;5.53;76.30;99375.84;1697607;84;21098;-68
2021/03/15 06:50:58;;;;;;;50.92;23.83;;;;;;;5.50;76.33;99382.67;1691381;83;21265;-69
2021/03/15 06:53:25;;;;;;;52.77;23.27;;;;;;;5.10;77.74;99383.75;1702604;84;21828;-69
2021/03/15 06:55:53;;;;;;;47.90;22.57;;;;;;;4.75;79.59;99381.21;1671219;84;21167;-68
2021/03/15 06:58:28;;;;;;;43.50;22.48;;;;;;;5.01;78.95;99374.44;1686557;82;21241;-69
2021/03/15 07:01:14;;;;;;;43.48;23.32;;;;;;;5.24;78.31;99374.14;1696426;84;21244;-69
2021/03/15 07:03:41;;;;;;;51.15;22.55;;;;;;;5.39;77.93;99381.89;1692434;84;21279;-69
2021/03/15 07:06:07;;;;;;;45.23;21.30;;;;;;;5.45;78.03;99380.48;1704565;82;21152;-70
2021/03/15 07:08:33;;;;;;;46.68;25.77;;;;;;;5.58;77.64;99381.50;1700539;82;21635;-70
2021/03/15 07:10:59;;;;;;;48.38;26.45;;;;;;;5.35;78.49;99381.83;1702917;84;26827;-68
2021/03/15 07:13:28;;;;;;;57.23;26.10;;;;;;;5.11;79.42;99382.30;1701320;82;21330;-70
2021/03/15 07:15:55;;;;;;;51.35;26.62;;;;;;;4.67;81.23;99390.56;1702894;82;21254;-69
2021/03/15 07:18:30;;;;;;;52.75;24.30;;;;;;;4.87;81.29;99381.91;1699030;82;21663;-69
2021/03/15 07:20:57;;;;;;;53.78;28.15;;;;;;;4.85;81.61;99384.66;1699730;82;21254;-69
2021/03/15 07:23:55;;;;;;;61.80;26.05;;;;;;;4.84;82.00;99381.70;1702508;82;21171;-71
2021/03/15 07:26:30;;;;;;;50.03;26.97;;;;;;;4.99;81.95;99381.62;1692210;82;22209;-70
2021/03/15 07:28:57;;;;;;;60.67;27.42;;;;;;;5.16;81.21;99384.50;1693054;82;21292;-69
2021/03/15 07:31:25;;;;;;;48.68;26.82;;;;;;;4.93;82.26;99387.41;1695837;82;21768;-70
2021/03/15 07:34:03;;;;;;;56.53;27.42;;;;;;;4.78;82.68;99392.21;1680506;82;21761;-69
2021/03/15 07:36:28;;;;;;;;;;;;;;;4.54;84.28;99397.86;1695656;82;21162;-68
2021/03/15 07:38:55;;;;;;;52.75;27.52;;;;;;;4.80;83.74;99394.23;1688563;82;21877;-68
2021/03/15 07:41:22;;;;;;;59.65;28.80;;;;;;;4.66;84.02;99402.00;1673833;82;21265;-68
2021/03/15 07:43:48;;;;;;;63.52;28.70;;;;;;;4.63;84.32;99397.05;1701209;82;21235;-67
2021/03/15 07:46:27;;;;;;;53.20;28.98;;;;;;;4.76;84.15;99398.56;1700675;82;21625;-67
2021/03/15 07:48:58;;;;;;;63.15;28.75;;;;;;;4.78;84.23;99404.48;1697360;82;22770;-68
2021/03/15 07:51:34;;;;;;;60.80;28.17;;;;;;;4.80;84.55;99405.16;1696039;82;21253;-67
2021/03/15 07:54:08;;;;;;;63.05;27.50;;;;;;;4.98;83.76;99399.58;1686637;82;21530;-68
2021/03/15 07:56:34;;;;;;;62.73;31.48;;;;;;;4.73;84.42;99410.12;1701604;82;21215;-67
2021/03/15 07:58:59;;;;;;;65.73;30.70;;;;;;;4.65;85.06;99414.72;1701014;82;28742;-67
2021/03/15 08:01:25;;;;;;;68.95;31.87;;;;;;;4.60;85.48;99403.86;1699000;82;25496;-67
2021/03/15 08:03:51;;;;;;;56.10;30.23;;;;;;;4.57;85.75;99405.44;1698753;82;21691;-68
2021/03/15 08:06:17;;;;;;;68.30;31.60;;;;;;;4.62;85.55;99405.84;1692709;82;21669;-68
2021/03/15 08:08:43;;;;;;;63.68;31.50;;;;;;;4.56;86.12;99403.77;1695977;82;21496;-67
2021/03/15 08:11:12;;;;;;;56.05;31.85;;;;;;;4.84;85.54;99393.47;1701255;82;27749;-68
2021/03/15 08:13:39;;;;;;;60.45;28.42;;;;;;;5.08;84.49;99394.82;1694945;82;21255;-68
2021/03/15 08:16:06;;;;;;;56.55;30.68;;;;;;;5.18;83.96;99399.57;1692625;82;21554;-68
2021/03/15 08:18:33;;;;;;;66.25;30.30;;;;;;;5.18;84.22;99403.50;1688486;82;22222;-68
2021/03/15 08:21:05;;;;;;;59.13;26.70;;;;;;;5.39;83.51;99402.84;1698508;82;21204;-68
2021/03/15 08:23:32;;;;;;;51.58;29.75;;;;;;;5.62;82.55;99405.11;1688436;82;21240;-68
2021/03/15 08:26:06;;;;;;;63.78;28.02;;;;;;;5.48;82.52;99407.70;1678158;82;21233;-68
2021/03/15 08:28:37;;;;;;;47.58;26.95;;;;;;;5.42;83.09;99412.19;1697295;82;21293;-68
2021/03/15 08:31:16;;;;;;;51.65;28.80;;;;;;;5.53;82.63;99407.27;1701387;82;21438;-67
2021/03/15 08:33:42;;;;;;;58.75;28.42;;;;;;;5.31;83.48;99411.86;1701598;82;21259;-67
2021/03/15 08:36:08;;;;;;;57.33;26.57;;;;;;;5.32;83.83;99413.52;1699281;82;21218;-68
2021/03/15 08:38:34;;;;;;;54.75;28.95;;;;;;;5.23;84.00;99413.55;1691540;82;26241;-67
2021/03/15 08:41:08;;;;;;;53.48;29.95;;;;;;;5.38;83.48;99419.51;1696566;82;21347;-68
2021/03/15 08:43:40;;;;;;;64.42;31.42;;;;;;;5.45;83.42;99422.38;1680625;82;21216;-67
2021/03/15 08:46:13;;;;;;;52.90;30.12;;;;;;;5.37;83.59;99421.77;1701298;82;22342;-67
2021/03/15 08:48:47;;;;;;;52.85;30.12;;;;;;;5.63;82.65;99418.56;1686118;84;21731;-68
2021/03/15 08:51:35;;;;;;;63.58;27.98;;;;;;;5.72;82.37;99416.39;1700454;82;21247;-69
2021/03/15 08:54:04;;;;;;;50.38;28.27;;;;;;;5.92;81.70;99417.64;1691416;82;21704;-68
2021/03/15 08:56:40;;;;;;;50.10;27.95;;;;;;;5.73;81.42;99419.37;1700865;82;21657;-68
2021/03/15 08:59:09;;;;;;;49.40;23.77;;;;;;;5.73;81.33;99428.53;1692222;82;21741;-69
2021/03/15 09:01:56;;;;;;;52.93;28.83;;;;;;;5.64;81.82;99420.22;1682798;82;21690;-71
2021/03/15 09:04:40;;;;;;;47.65;27.42;;;;;;;5.87;81.46;99419.84;1698570;82;21171;-70
2021/03/15 09:07:31;;;;;;;50.60;29.05;;;;;;;6.08;80.54;99420.48;1701783;82;21600;-69
2021/03/15 09:09:57;;;;;;;47.00;27.17;;;;;;;6.15;80.81;99418.59;1698079;82;21333;-70
2021/03/15 09:12:23;;;;;;;46.85;26.93;;;;;;;6.49;79.84;99420.61;1697452;82;21237;-71
2021/03/15 09:14:56;;;;;;;46.42;27.45;;;;;;;6.72;79.11;99416.58;1696371;82;27439;-70
2021/03/15 09:17:28;;;;;;;40.67;22.37;;;;;;;6.83;78.16;99420.28;1689598;82;21258;-69
2021/03/15 09:19:54;;;;;;;39.70;23.90;;;;;;;6.83;76.80;99411.10;1698042;82;21971;-69
2021/03/15 09:22:30;;;;;;;40.93;22.00;;;;;;;6.94;76.45;99415.80;1703718;82;21267;-69
2021/03/15 09:25:02;;;;;;;35.20;21.48;;;;;;;6.98;75.92;99414.53;1691105;82;21262;-70
2021/03/15 09:27:40;;;;;;;32.58;20.27;;;;;;;6.96;75.94;99412.05;1688813;82;21180;-67
2021/03/15 09:30:14;;;;;;;32.17;18.85;;;;;;;7.23;75.36;99418.17;1697544;82;21613;-68
2021/03/15 09:32:57;;;;;;;30.55;19.67;;;;;;;7.30;74.14;99412.66;1701289;82;21231;-68
2021/03/15 09:35:36;;;;;;;30.60;18.85;;;;;;;7.62;73.54;99403.82;1692018;82;21224;-69
2021/03/15 09:38:11;;;;;;;31.07;20.23;;;;;;;7.84;72.65;99407.70;1698774;82;21188;-68
2021/03/15 09:40:50;;;;;;;34.63;19.98;;;;;;;8.03;72.49;99406.63;1685349;82;21249;-68
2021/03/15 09:43:24;;;;;;;34.50;18.67;;;;;;;7.91;71.91;99401.67;1701848;82;21164;-70
2021/03/15 09:45:55;;;;;;;31.75;18.60;;;;;;;8.15;72.05;99406.69;1702696;82;21227;-71
2021/03/15 09:48:22;;;;;;;31.17;17.98;;;;;;;7.83;71.06;99402.95;1695774;82;21230;-69
2021/03/15 09:50:59;;;;;;;;;;;;;;;8.15;70.82;99399.30;1736603;81;21215;-70
2021/03/15 09:53:25;;;;;;;28.32;17.95;;;;;;;8.03;70.60;99401.38;1732211;81;20233;-71
2021/03/15 09:56:10;;;;;;;28.32;16.80;;;;;;;8.25;70.20;99399.50;1690999;82;27183;-70
2021/03/15 09:58:36;;;;;;;27.52;17.07;;;;;;;8.32;69.96;99395.73;1695819;82;21264;-70
2021/03/15 10:01:13;;;;;;;32.08;18.87;;;;;;;8.16;69.82;99399.14;1681669;82;21543;-70
2021/03/15 10:03:39;;;;;;;33.42;19.12;;;;;;;8.22;70.52;99400.32;1690469;82;21243;-69
2021/03/15 10:06:05;;;;;;;28.65;18.02;;;;;;;8.04;70.43;99410.92;1685201;82;28466;-70
2021/03/15 10:08:30;;;;;;;28.67;16.70;;;;;;;7.86;70.52;99398.70;1692427;82;26801;-69
2021/03/15 10:10:57;;;;;;;25.25;15.88;;;;;;;7.93;70.13;99404.64;1682720;82;21920;-70
2021/03/15 10:13:22;;;;;;;24.82;15.60;;;;;;;7.97;69.57;99402.00;1692182;82;21641;-70
2021/03/15 10:15:48;;;;;;;22.45;14.58;;;;;;;8.05;69.27;99392.86;1687706;82;25352;-70
2021/03/15 10:18:18;;;;;;;27.35;15.75;;;;;;;8.05;68.61;99392.86;1690811;82;28352;-70
2021/03/15 10:20:43;;;;;;;25.50;14.90;;;;;;;8.00;68.33;99394.65;1684163;84;21300;-70
2021/03/15 10:23:15;;;;;;;26.07;15.40;;;;;;;8.11;68.19;99388.28;1690641;82;21890;-69
2021/03/15 10:26:02;;;;;;;27.52;15.13;;;;;;;8.07;68.65;99384.31;1698790;82;21271;-69
2021/03/15 10:28:30;;;;;;;24.72;15.10;;;;;;;7.96;68.70;99381.98;1693159;82;21199;-69
2021/03/15 10:30:55;;;;;;;22.58;13.18;;;;;;;8.06;67.74;99377.39;1696148;82;21251;-69
2021/03/15 10:33:23;;;;;;;22.37;13.75;;;;;;;7.74;67.39;99389.44;1687215;82;26890;-70
2021/03/15 10:35:50;;;;;;;23.00;13.32;;;;;;;8.00;67.49;99370.14;1689666;82;21160;-70
2021/03/15 10:38:21;;;;;;;23.03;13.87;;;;;;;8.24;66.90;99372.85;1692952;82;21219;-70
2021/03/15 10:40:46;;;;;;;22.07;13.38;;;;;;;8.34;66.53;99377.16;1693382;82;21520;-69
2021/03/15 10:43:19;;;;;;;25.50;13.72;;;;;;;8.49;66.28;99372.94;1682345;82;28823;-70
2021/03/15 10:45:45;;;;;;;21.57;13.30;;;;;;;8.67;66.01;99367.55;1684833;82;21248;-70
2021/03/15 10:48:11;;;;;;;23.35;13.18;;;;;;;8.64;65.59;99374.45;1682829;82;21263;-71
2021/03/15 10:50:38;;;;;;;21.15;12.50;;;;;;;8.29;65.58;99368.93;1690036;82;26824;-71
2021/03/15 10:53:15;;;;;;;22.32;12.18;;;;;;;8.71;65.27;99360.14;1655342;84;21273;-69
2021/03/15 10:55:40;;;;;;;21.62;12.75;;;;;;;8.92;64.65;99364.43;1678961;82;21716;-71
2021/03/15 10:58:12;;;;;;;20.77;11.22;;;;;;;9.05;64.18;99360.48;1688303;82;27095;-70
2021/03/15 11:00:50;;;;;;;20.25;11.15;;;;;;;9.19;63.44;99353.21;1687315;82;21322;-71
2021/03/15 11:03:29;;;;;;;20.00;11.22;;;;;;;9.36;62.39;99349.24;1688797;82;21238;-69
2021/03/15 11:06:12;;;;;;;18.90;10.60;;;;;;;9.31;62.27;99346.61;1686248;82;21214;-70
2021/03/15 11:08:37;;;;;;;18.98;10.70;;;;;;;9.54;62.15;99344.59;1692015;82;21657;-71
2021/03/15 11:11:23;;;;;;;18.00;10.98;;;;;;;9.58;61.86;99338.47;1686898;82;26852;-70
2021/03/15 11:13:51;;;;;;;21.48;11.30;;;;;;;9.58;61.79;99332.70;1698517;82;21405;-70
2021/03/15 11:16:24;;;;;;;19.30;9.93;;;;;;;9.43;61.87;99337.02;1698953;84;21231;-70
2021/03/15 11:19:09;;;;;;;18.42;9.28;;;;;;;9.45;60.97;99339.02;1692476;82;21629;-70
2021/03/15 11:21:37;;;;;;;18.10;9.30;;;;;;;9.34;61.56;99337.05;1681759;82;21615;-71
2021/03/15 11:24:04;;;;;;;14.58;8.70;;;;;;;9.21;61.61;99336.73;1690668;84;21255;-69
2021/03/15 11:26:51;;;;;;;17.95;9.35;;;;;;;9.06;61.96;99343.19;1678751;84;21526;-69
2021/03/15 11:29:20;;;;;;;16.65;8.63;;;;;;;9.17;61.92;99332.81;1702036;82;28454;-69
2021/03/15 11:31:49;;;;;;;15.80;8.65;;;;;;;9.06;61.97;99334.45;1686555;82;21296;-69
2021/03/15 11:34:24;;;;;;;17.70;8.60;;;;;;;9.21;61.71;99321.44;1674547;84;21642;-69
2021/03/15 11:36:49;;;;;;;15.00;8.25;;;;;;;9.43;61.86;99317.25;1707026;83;21210;-69
2021/03/15 11:39:16;;;;;;;15.83;8.48;;;;;;;9.42;61.57;99318.27;1705560;83;21870;-69
2021/03/15 11:41:42;;;;;;;14.30;8.08;;;;;;;9.44;61.13;99317.09;1677925;84;21254;-71
2021/03/15 11:44:08;;;;;;;16.93;8.10;;;;;;;9.55;60.97;99314.58;1697137;83;21213;-70
2021/03/15 11:46:34;;;;;;;15.25;8.30;;;;;;;9.82;60.67;99313.81;1707287;83;28569;-70
2021/03/15 11:49:00;;;;;;;14.40;7.35;;;;;;;9.76;59.68;99309.25;1696539;84;21748;-70